Time;durP1;ratioP1;P1;durP2;ratioP2;P2;SDS_P1;SDS_P2;PMS_P1;PMS_P2;Temp;Humidity;BMP_temperature;BMP_pressure;BME280_temperature;BME280_humidity;BME280_pressure;Samples;Min_cycle;Max_cycle;Signal;HPM_P1;HPM_P2
2022/02/26 00:01:24;;;;;;;36.85;4.18;;;5.70;99.50;;;;;;4972254;28;20057;-82
2022/02/26 00:03:49;;;;;;;35.70;3.88;;;5.70;99.50;;;;;;4971915;28;20460;-80
2022/02/26 00:06:18;;;;;;;26.55;3.70;;;5.70;99.50;;;;;;4972559;28;20039;-80
2022/02/26 00:08:43;;;;;;;28.98;4.13;;;5.70;99.40;;;;;;4987223;28;20071;-80
2022/02/26 00:11:19;;;;;;;19.77;3.65;;;5.70;99.40;;;;;;4972041;28;20055;-80
2022/02/26 00:13:45;;;;;;;21.58;3.15;;;5.70;99.40;;;;;;4972146;28;20453;-78
2022/02/26 00:16:19;;;;;;;30.92;4.53;;;5.70;99.40;;;;;;4972115;28;20100;-79
2022/02/26 00:18:45;;;;;;;23.30;3.75;;;5.70;99.50;;;;;;4970952;28;20023;-81
2022/02/26 00:21:23;;;;;;;25.75;3.35;;;5.70;99.40;;;;;;4972702;28;20027;-81
2022/02/26 00:23:48;;;;;;;;;;;5.60;99.70;;;;;;4972389;28;20505;-81
2022/02/26 00:26:24;;;;;;;30.50;4.20;;;5.60;99.90;;;;;;4971798;28;19997;-81
2022/02/26 00:28:50;;;;;;;27.55;3.42;;;5.50;99.70;;;;;;4971722;28;20030;-80
2022/02/26 00:31:40;;;;;;;12.82;3.20;;;5.50;99.80;;;;;;4972080;28;20034;-79
2022/02/26 00:34:06;;;;;;;20.85;3.42;;;5.60;99.70;;;;;;4975119;28;20366;-80
2022/02/26 00:36:34;;;;;;;33.10;3.28;;;5.60;99.70;;;;;;4989038;28;20297;-80
2022/02/26 00:39:00;;;;;;;27.58;2.97;;;5.70;99.80;;;;;;4994496;28;20481;-79
2022/02/26 00:41:33;;;;;;;25.90;3.03;;;5.80;99.50;;;;;;4994327;28;20084;-79
2022/02/26 00:43:59;;;;;;;24.05;2.97;;;5.80;99.50;;;;;;4994423;28;20045;-78
2022/02/26 00:46:38;;;;;;;22.33;3.28;;;5.80;99.40;;;;;;4977054;28;20030;-79
2022/02/26 00:51:49;;;;;;;21.92;3.80;;;5.80;99.50;;;;;;4994379;28;20113;-80
2022/02/26 00:54:15;;;;;;;31.80;4.30;;;5.80;99.50;;;;;;4994607;28;20057;-79
2022/02/26 00:56:42;;;;;;;18.08;3.28;;;6.00;99.50;;;;;;4994233;28;20679;-79
2022/02/26 00:59:08;;;;;;;36.85;4.30;;;6.00;99.30;;;;;;4994111;28;20047;-80
2022/02/26 01:01:35;;;;;;;31.17;3.60;;;5.80;99.40;;;;;;4994006;28;20042;-80
2022/02/26 01:04:02;;;;;;;25.10;3.20;;;5.90;99.60;;;;;;4994152;28;20039;-80
2022/02/26 01:06:28;;;;;;;32.30;4.22;;;6.00;99.40;;;;;;4994816;28;20026;-80
2022/02/26 01:08:53;;;;;;;22.55;3.33;;;5.80;99.40;;;;;;4994144;28;20034;-80
2022/02/26 01:11:23;;;;;;;32.45;2.95;;;5.90;99.60;;;;;;4994004;28;20045;-80
2022/02/26 01:13:49;;;;;;;30.48;3.65;;;5.90;99.50;;;;;;4994164;28;20476;-79
2022/02/26 01:16:30;;;;;;;23.45;3.20;;;6.00;99.40;;;;;;4993794;28;20133;-79
2022/02/26 01:18:56;;;;;;;35.95;3.45;;;6.00;99.40;;;;;;4976681;28;20077;-79
2022/02/26 01:21:24;;;;;;;25.83;3.42;;;6.00;99.30;;;;;;4994081;28;20553;-79
2022/02/26 01:23:50;;;;;;;31.15;3.30;;;6.00;99.40;;;;;;4993664;28;20038;-79
2022/02/26 01:26:22;;;;;;;28.98;3.22;;;6.10;99.40;;;;;;4993528;28;20255;-80
2022/02/26 01:28:50;;;;;;;29.80;3.22;;;6.20;99.20;;;;;;4993634;28;20109;-78
2022/02/26 01:31:22;;;;;;;17.17;2.70;;;6.10;99.30;;;;;;4993526;28;20026;-78
2022/02/26 01:33:48;;;;;;;24.92;3.50;;;6.10;99.30;;;;;;4993496;28;20065;-79
2022/02/26 01:36:23;;;;;;;23.60;3.42;;;6.10;99.30;;;;;;4993674;28;20108;-78
2022/02/26 01:38:48;;;;;;;24.08;3.17;;;6.20;99.40;;;;;;4992425;28;20036;-79
2022/02/26 01:41:30;;;;;;;22.85;3.30;;;6.30;99.20;;;;;;4993273;28;20042;-78
2022/02/26 01:43:57;;;;;;;23.55;3.33;;;6.20;99.00;;;;;;4992890;28;20042;-79
2022/02/26 01:46:23;;;;;;;27.27;3.67;;;6.30;99.00;;;;;;4992218;28;20035;-79
2022/02/26 01:48:49;;;;;;;31.67;3.97;;;6.30;99.00;;;;;;4975944;28;20217;-79
2022/02/26 01:51:21;;;;;;;27.67;3.72;;;6.10;99.10;;;;;;4993702;28;20038;-79
2022/02/26 01:53:47;;;;;;;23.42;2.85;;;6.30;99.10;;;;;;4992904;28;20088;-79
2022/02/26 01:56:22;;;;;;;19.23;3.05;;;6.40;98.90;;;;;;4992980;28;20042;-79
2022/02/26 01:58:48;;;;;;;28.52;3.90;;;6.40;98.70;;;;;;4992970;28;20037;-80
2022/02/26 02:01:25;;;;;;;35.67;5.10;;;6.50;98.70;;;;;;4993100;28;20019;-80
2022/02/26 02:03:51;;;;;;;28.08;3.42;;;6.50;98.70;;;;;;4992989;28;20018;-80
2022/02/26 02:06:32;;;;;;;19.65;3.55;;;6.50;98.60;;;;;;4993275;28;20217;-80
2022/02/26 02:08:57;;;;;;;32.28;4.45;;;6.40;98.70;;;;;;4992784;28;20128;-80
2022/02/26 02:11:23;;;;;;;24.35;3.75;;;6.50;98.60;;;;;;4975539;28;20117;-80
2022/02/26 02:13:49;;;;;;;34.30;2.88;;;6.40;98.60;;;;;;4992841;28;20533;-81
2022/02/26 02:16:20;;;;;;;27.38;3.00;;;6.30;98.80;;;;;;4992740;28;20023;-80
2022/02/26 02:18:46;;;;;;;29.25;3.55;;;6.30;98.90;;;;;;4992724;28;20058;-80
2022/02/26 02:21:21;;;;;;;26.25;3.40;;;6.30;98.90;;;;;;4993018;28;20108;-81
2022/02/26 02:23:47;;;;;;;34.33;4.05;;;6.40;98.80;;;;;;4992602;28;20045;-80
2022/02/26 02:26:19;;;;;;;37.03;4.03;;;6.40;98.70;;;;;;4992692;28;20030;-78
2022/02/26 02:28:45;;;;;;;31.13;3.55;;;6.30;98.70;;;;;;4992362;28;20137;-78
2022/02/26 02:31:19;;;;;;;27.13;3.08;;;6.30;98.70;;;;;;4992403;28;20430;-77
2022/02/26 02:33:47;;;;;;;29.92;3.92;;;6.40;98.70;;;;;;4992146;28;20034;-79
2022/02/26 02:36:25;;;;;;;25.13;3.55;;;6.30;98.60;;;;;;5014474;28;20045;-77
2022/02/26 02:38:50;;;;;;;32.92;3.53;;;6.30;98.70;;;;;;5031534;28;20128;-78
2022/02/26 02:41:28;;;;;;;32.70;4.05;;;6.10;98.80;;;;;;5031560;28;20131;-78
2022/02/26 02:43:53;;;;;;;23.08;2.78;;;6.10;99.20;;;;;;5031696;28;20057;-78
2022/02/26 02:46:25;;;;;;;23.15;3.35;;;6.20;99.00;;;;;;5031330;28;20568;-80
2022/02/26 02:48:52;;;;;;;27.70;3.85;;;6.30;98.90;;;;;;5031609;28;20481;-78
2022/02/26 02:51:21;;;;;;;28.35;4.43;;;6.40;98.70;;;;;;5032375;28;20026;-82
2022/02/26 02:53:46;;;;;;;27.65;2.97;;;6.20;98.80;;;;;;5031853;28;20109;-81
2022/02/26 02:56:15;;;;;;;31.92;3.60;;;6.10;98.90;;;;;;5013926;28;20104;-81
2022/02/26 02:58:41;;;;;;;26.73;3.30;;;6.10;98.90;;;;;;5032006;28;20121;-82
2022/02/26 03:01:07;;;;;;;43.55;3.72;;;6.20;98.90;;;;;;5031864;28;20052;-80
2022/02/26 03:03:32;;;;;;;20.80;3.17;;;6.10;98.90;;;;;;5032286;28;20057;-80
2022/02/26 03:05:58;;;;;;;23.02;3.30;;;6.20;99.00;;;;;;5031734;28;20041;-79
2022/02/26 03:08:24;;;;;;;29.42;3.83;;;6.20;98.80;;;;;;5031578;28;20033;-80
2022/02/26 03:10:57;;;;;;;19.95;2.72;;;6.30;98.80;;;;;;5013961;28;20460;-79
2022/02/26 03:13:24;;;;;;;34.25;4.93;;;6.20;98.70;;;;;;5013824;28;20048;-79
2022/02/26 03:15:52;;;;;;;32.33;3.67;;;6.30;98.70;;;;;;5031822;28;20029;-79
2022/02/26 03:18:19;;;;;;;28.75;4.22;;;6.20;98.60;;;;;;5031911;28;20021;-79
2022/02/26 03:20:45;;;;;;;29.38;4.10;;;6.20;98.80;;;;;;5031295;28;20033;-79
2022/02/26 03:23:11;;;;;;;42.10;4.40;;;6.20;98.70;;;;;;5030946;28;20650;-80
2022/02/26 03:25:37;;;;;;;31.40;3.40;;;6.20;98.60;;;;;;5031281;28;20049;-80
2022/02/26 03:28:02;;;;;;;27.38;3.00;;;6.10;98.70;;;;;;5031261;28;20577;-80
2022/02/26 03:30:28;;;;;;;25.50;3.63;;;6.10;98.90;;;;;;5031760;28;20040;-80
2022/02/26 03:32:55;;;;;;;21.15;2.70;;;6.00;99.00;;;;;;5031661;28;20132;-79
2022/02/26 03:35:20;;;;;;;29.70;3.17;;;6.00;98.80;;;;;;5031060;28;20068;-80
2022/02/26 03:37:46;;;;;;;28.70;3.65;;;6.00;99.00;;;;;;5031619;28;20364;-80
2022/02/26 03:40:13;;;;;;;31.10;3.75;;;5.90;98.90;;;;;;5031477;28;20042;-80
2022/02/26 03:42:39;;;;;;;24.92;3.08;;;5.90;99.00;;;;;;5030858;28;20091;-80
2022/02/26 03:45:09;;;;;;;29.92;3.60;;;5.80;99.00;;;;;;5013992;28;20029;-80
2022/02/26 03:47:34;;;;;;;28.90;4.35;;;5.80;99.30;;;;;;5030716;28;20422;-80
2022/02/26 03:50:00;;;;;;;29.30;3.63;;;5.80;99.10;;;;;;5030847;28;20028;-80
2022/02/26 03:52:25;;;;;;;26.77;3.33;;;5.80;99.00;;;;;;5030682;28;20045;-80
2022/02/26 03:54:51;;;;;;;28.20;2.88;;;5.80;99.10;;;;;;5031157;28;20063;-80
2022/02/26 03:57:17;;;;;;;23.45;3.33;;;5.80;99.00;;;;;;5031696;28;20040;-80
2022/02/26 03:59:42;;;;;;;24.58;3.20;;;5.70;99.20;;;;;;5031143;28;20113;-80
2022/02/26 04:02:15;;;;;;;29.27;4.40;;;5.80;99.20;;;;;;5013484;28;20034;-81
2022/02/26 04:04:41;;;;;;;30.92;4.03;;;5.80;99.00;;;;;;5030762;28;20029;-78
2022/02/26 04:07:12;;;;;;;30.95;4.20;;;5.80;99.10;;;;;;5033711;28;20355;-78
2022/02/26 04:09:38;;;;;;;21.25;3.42;;;5.80;99.20;;;;;;5034465;28;20459;-78
2022/02/26 04:12:04;;;;;;;26.85;3.75;;;5.80;99.10;;;;;;5035173;28;20227;-79
2022/02/26 04:14:29;;;;;;;28.95;3.28;;;5.70;99.10;;;;;;5034750;28;20121;-78
2022/02/26 04:16:55;;;;;;;27.60;3.33;;;5.70;99.20;;;;;;5034679;28;20133;-79
2022/02/26 04:19:20;;;;;;;25.15;2.95;;;5.70;99.20;;;;;;5034726;28;20037;-80
2022/02/26 04:21:49;;;;;;;24.27;2.75;;;5.70;99.10;;;;;;5034389;28;20393;-81
2022/02/26 04:24:16;;;;;;;23.65;3.38;;;5.60;99.30;;;;;;5035171;28;20035;-78
2022/02/26 04:26:42;;;;;;;20.55;3.33;;;5.60;99.40;;;;;;5034541;28;20032;-78
2022/02/26 04:29:07;;;;;;;24.75;3.30;;;5.60;99.30;;;;;;5034546;28;20029;-79
2022/02/26 04:31:33;;;;;;;16.88;2.58;;;5.40;99.50;;;;;;5034549;28;20040;-79
2022/02/26 04:33:59;;;;;;;22.38;3.65;;;5.40;99.60;;;;;;5034627;28;20029;-80
2022/02/26 04:37:06;;;;;;;27.40;3.83;;;5.50;99.60;;;;;;5034621;28;20053;-79
2022/02/26 04:39:32;;;;;;;33.83;3.75;;;5.50;99.40;;;;;;5034381;28;20029;-79
2022/02/26 04:42:28;;;;;;;28.52;4.82;;;5.40;99.40;;;;;;5034768;28;20343;-78
2022/02/26 04:44:54;;;;;;;22.30;3.47;;;5.40;99.60;;;;;;5016733;28;20029;-79
2022/02/26 04:47:19;;;;;;;21.67;3.28;;;5.50;99.70;;;;;;5034187;28;20045;-79
2022/02/26 04:49:45;;;;;;;30.60;3.83;;;5.50;99.50;;;;;;5034128;28;20072;-80
2022/02/26 04:52:42;;;;;;;28.27;3.30;;;5.50;99.40;;;;;;5016372;28;20032;-79
2022/02/26 04:55:09;;;;;;;23.10;3.28;;;5.60;99.50;;;;;;5033876;28;20482;-80
2022/02/26 04:57:44;;;;;;;23.30;3.55;;;5.60;99.40;;;;;;5016053;28;20382;-79
2022/02/26 05:00:11;;;;;;;21.23;2.88;;;5.50;99.30;;;;;;5034437;28;20029;-80
2022/02/26 05:02:40;;;;;;;39.78;3.63;;;5.40;99.50;;;;;;5033756;28;20045;-80
2022/02/26 05:05:06;;;;;;;24.98;3.47;;;5.50;99.60;;;;;;5016129;28;20021;-79
2022/02/26 05:07:32;;;;;;;25.10;3.30;;;5.40;99.60;;;;;;5016053;28;20542;-79
2022/02/26 05:09:58;;;;;;;28.52;3.90;;;5.40;99.60;;;;;;5033533;28;20177;-79
2022/02/26 05:15:45;;;;;;;27.38;2.65;;;5.40;99.60;;;;;;5018600;28;20152;-80
2022/02/26 05:18:10;;;;;;;29.88;3.38;;;5.40;99.60;;;;;;5033331;28;20420;-80
2022/02/26 05:20:36;;;;;;;25.92;3.33;;;5.40;99.70;;;;;;5034280;28;20042;-79
2022/02/26 05:23:02;;;;;;;21.08;2.28;;;5.30;99.70;;;;;;5019243;28;20040;-79
2022/02/26 05:25:28;;;;;;;30.08;3.65;;;5.40;99.70;;;;;;5038676;28;20029;-78
2022/02/26 05:27:53;;;;;;;20.88;3.03;;;5.40;99.60;;;;;;5039372;28;20041;-80
2022/02/26 05:30:19;;;;;;;16.70;2.85;;;5.60;99.60;;;;;;5038860;28;20029;-78
2022/02/26 05:32:45;;;;;;;19.70;3.15;;;5.50;99.40;;;;;;5020773;28;20049;-79
2022/02/26 05:35:11;;;;;;;25.15;3.40;;;5.50;99.50;;;;;;5040087;28;20147;-78
2022/02/26 05:37:37;;;;;;;27.65;3.13;;;5.60;99.60;;;;;;5040804;28;20040;-80
2022/02/26 05:40:04;;;;;;;21.95;3.20;;;5.60;99.40;;;;;;5022943;28;20034;-80
2022/02/26 05:42:29;;;;;;;24.13;3.13;;;5.50;99.60;;;;;;5019454;28;20029;-79
2022/02/26 05:44:55;;;;;;;33.05;3.65;;;5.50;99.70;;;;;;5034097;28;20481;-82
2022/02/26 05:47:21;;;;;;;23.98;3.17;;;5.60;99.60;;;;;;5034730;28;20030;-82
2022/02/26 05:49:47;;;;;;;25.30;3.47;;;5.60;99.40;;;;;;5033223;28;20072;-80
2022/02/26 05:52:12;;;;;;;24.10;3.58;;;5.60;99.50;;;;;;5033054;28;20049;-80
2022/02/26 05:54:38;;;;;;;42.03;3.45;;;5.60;99.50;;;;;;5015713;28;20025;-80
2022/02/26 05:57:04;;;;;;;29.67;3.45;;;5.50;99.50;;;;;;5033299;28;20029;-79
2022/02/26 05:59:29;;;;;;;32.38;3.63;;;5.60;99.60;;;;;;5015235;28;20029;-79
2022/02/26 06:01:55;;;;;;;26.67;3.65;;;5.60;99.40;;;;;;5032732;28;20041;-80
2022/02/26 06:04:21;;;;;;;24.15;3.50;;;5.50;99.40;;;;;;5032496;28;20418;-80
2022/02/26 06:06:46;;;;;;;29.75;3.28;;;5.40;99.60;;;;;;5032323;28;20333;-84
2022/02/26 06:09:12;;;;;;;28.92;3.45;;;5.40;99.60;;;;;;5033558;28;20021;-84
2022/02/26 06:11:37;;;;;;;25.17;3.58;;;5.40;99.60;;;;;;5032561;28;20367;-80
2022/02/26 06:14:03;;;;;;;31.98;3.35;;;5.50;99.70;;;;;;5014903;28;20045;-81
2022/02/26 06:16:28;;;;;;;23.00;2.83;;;5.40;99.70;;;;;;5015129;28;20479;-79
2022/02/26 06:18:54;;;;;;;33.05;3.05;;;5.30;99.80;;;;;;5032092;28;20029;-78
2022/02/26 06:21:19;;;;;;;32.83;4.97;;;5.30;99.80;;;;;;5033098;28;20487;-79
2022/02/26 06:23:45;;;;;;;27.50;3.78;;;5.40;99.80;;;;;;5032228;28;20132;-78
2022/02/26 06:26:11;;;;;;;19.42;3.33;;;5.40;99.80;;;;;;5032057;28;20112;-79
2022/02/26 06:28:37;;;;;;;31.90;3.33;;;5.30;99.90;;;;;;5031954;28;20030;-78
2022/02/26 06:31:05;;;;;;;25.38;3.42;;;5.40;99.90;;;;;;5014740;28;20048;-79
2022/02/26 06:33:31;;;;;;;20.55;3.10;;;5.30;99.90;;;;;;5015021;28;20033;-80
2022/02/26 06:35:56;;;;;;;25.63;3.40;;;5.30;99.90;;;;;;5031842;28;20057;-80
2022/02/26 06:38:22;;;;;;;30.17;3.67;;;5.40;99.90;;;;;;5032028;28;20044;-81
2022/02/26 06:40:48;;;;;;;27.88;4.45;;;5.40;99.90;;;;;;5031759;28;20044;-81
2022/02/26 06:43:13;;;;;;;32.85;4.28;;;5.50;99.90;;;;;;5014528;28;20120;-80
2022/02/26 06:45:39;;;;;;;25.02;3.95;;;5.50;99.80;;;;;;5031930;28;20366;-79
2022/02/26 06:48:04;;;;;;;22.67;3.00;;;5.50;99.80;;;;;;5031995;28;20040;-80
2022/02/26 06:50:31;;;;;;;25.70;3.60;;;5.40;99.80;;;;;;5031784;28;20034;-80
2022/02/26 06:52:57;;;;;;;23.90;3.35;;;5.40;99.80;;;;;;5031504;28;20340;-80
2022/02/26 06:55:22;;;;;;;31.45;3.65;;;5.50;99.90;;;;;;5031620;28;20530;-81
2022/02/26 06:57:48;;;;;;;30.67;2.95;;;5.40;99.90;;;;;;5031508;28;20025;-81
2022/02/26 07:00:14;;;;;;;23.13;3.33;;;5.60;99.90;;;;;;5031883;28;20468;-79
2022/02/26 07:02:40;;;;;;;30.58;4.20;;;5.60;99.90;;;;;;5013916;28;20379;-80
2022/02/26 07:05:06;;;;;;;31.60;3.92;;;5.60;99.70;;;;;;5031347;28;20030;-80
2022/02/26 07:07:32;;;;;;;32.92;4.15;;;5.70;99.90;;;;;;5031431;28;20025;-79
2022/02/26 07:09:57;;;;;;;29.80;4.35;;;5.70;99.80;;;;;;5031859;28;20034;-84
2022/02/26 07:12:23;;;;;;;33.63;5.15;;;5.70;99.80;;;;;;5014741;28;20036;-82
2022/02/26 07:14:49;;;;;;;33.60;4.22;;;5.70;99.70;;;;;;5014824;28;20033;-81
2022/02/26 07:17:22;;;;;;;25.80;3.97;;;5.70;99.90;;;;;;5031975;28;20356;-86
2022/02/26 07:19:47;;;;;;;31.25;4.68;;;5.70;99.90;;;;;;5032444;28;20033;-83
2022/02/26 07:22:13;;;;;;;21.60;3.47;;;5.90;99.90;;;;;;5031381;28;20090;-82
2022/02/26 07:24:38;;;;;;;18.08;3.35;;;6.00;99.70;;;;;;5031365;28;20093;-78
2022/02/26 07:27:04;;;;;;;25.25;3.22;;;6.00;99.60;;;;;;5031530;28;20026;-78
2022/02/26 07:29:29;;;;;;;27.95;4.30;;;6.10;99.60;;;;;;5031376;28;20465;-78
2022/02/26 07:31:55;;;;;;;30.00;4.45;;;5.90;99.60;;;;;;5031022;28;20030;-82
2022/02/26 07:34:21;;;;;;;25.40;3.75;;;6.00;99.80;;;;;;5031076;28;20022;-77
2022/02/26 07:36:46;;;;;;;22.52;3.70;;;5.80;99.90;;;;;;5013213;28;20048;-78
2022/02/26 07:39:12;;;;;;;24.30;4.80;;;6.00;99.90;;;;;;5013935;28;20040;-78
2022/02/26 07:41:38;;;;;;;23.50;3.47;;;6.10;99.80;;;;;;5033470;28;20049;-79
2022/02/26 07:44:05;;;;;;;28.55;3.92;;;6.20;99.80;;;;;;5017813;28;20076;-80
2022/02/26 07:46:31;;;;;;;23.90;4.53;;;6.20;99.60;;;;;;5034932;28;20454;-79
2022/02/26 07:48:57;;;;;;;31.05;4.15;;;6.10;99.60;;;;;;5034546;28;20034;-77
2022/02/26 07:51:22;;;;;;;29.55;3.88;;;6.10;99.90;;;;;;5035240;28;20021;-79
2022/02/26 07:53:48;;;;;;;39.67;5.32;;;6.30;99.80;;;;;;5034908;28;20033;-82
2022/02/26 07:56:13;;;;;;;32.88;4.15;;;6.40;99.80;;;;;;5035229;28;20091;-92
2022/02/26 07:58:39;;;;;;;27.20;3.47;;;6.50;99.50;;;;;;5036750;28;20034;-79
2022/02/26 08:01:08;;;;;;;31.17;5.75;;;6.60;99.50;;;;;;5035725;28;20087;-88
2022/02/26 08:03:33;;;;;;;23.08;3.85;;;6.70;99.30;;;;;;5041404;28;20029;-82
2022/02/26 08:06:00;;;;;;;33.25;4.55;;;6.70;99.30;;;;;;5035764;28;20028;-85
2022/02/26 08:08:25;;;;;;;27.90;4.28;;;6.70;99.50;;;;;;5035016;28;20091;-82
2022/02/26 08:10:51;;;;;;;23.45;3.65;;;6.80;99.30;;;;;;5034625;28;20108;-86
2022/02/26 08:13:16;;;;;;;31.30;6.18;;;6.80;99.30;;;;;;5034718;28;20018;-82
2022/02/26 08:15:42;;;;;;;41.47;3.92;;;7.00;99.30;;;;;;5017600;28;20033;-80
2022/02/26 08:18:10;;;;;;;34.40;4.60;;;7.10;99.20;;;;;;5030604;28;20127;-85
2022/02/26 08:20:36;;;;;;;38.55;3.78;;;6.90;99.10;;;;;;4995049;28;20034;-81
2022/02/26 08:23:03;;;;;;;37.75;4.28;;;7.00;99.20;;;;;;4995055;28;20042;-83
2022/02/26 08:25:28;;;;;;;36.72;4.13;;;7.10;99.30;;;;;;4994944;28;20022;-84
2022/02/26 08:27:54;;;;;;;31.35;5.85;;;7.20;99.50;;;;;;4994532;28;20043;-79
2022/02/26 08:30:21;;;;;;;32.20;4.03;;;7.30;99.30;;;;;;4995222;28;20114;-79
2022/02/26 08:32:47;;;;;;;30.60;4.38;;;7.20;99.40;;;;;;4994731;28;20463;-80
2022/02/26 08:35:14;;;;;;;22.30;3.92;;;7.20;99.50;;;;;;4994460;28;20539;-83
2022/02/26 08:37:40;;;;;;;34.60;4.70;;;7.40;99.40;;;;;;4993733;28;20058;-80
2022/02/26 08:40:08;;;;;;;34.60;4.63;;;7.50;99.20;;;;;;4994783;28;20042;-82
2022/02/26 08:42:34;;;;;;;36.78;4.28;;;7.50;99.10;;;;;;4994384;28;20092;-81
2022/02/26 08:45:02;;;;;;;37.17;5.35;;;7.50;99.20;;;;;;4995132;28;20038;-80
2022/02/26 08:47:29;;;;;;;;;;;7.70;98.90;;;;;;4994859;28;20049;-77
2022/02/26 08:49:57;;;;;;;29.40;3.97;;;7.70;98.90;;;;;;4994542;28;19985;-88
2022/02/26 08:52:23;;;;;;;27.60;4.75;;;7.60;98.80;;;;;;4993953;28;20030;-79
2022/02/26 08:54:49;;;;;;;31.80;4.53;;;7.40;98.90;;;;;;4993911;28;20084;-76
2022/02/26 08:57:14;;;;;;;27.45;4.00;;;7.60;99.00;;;;;;4994698;28;20045;-85
2022/02/26 08:59:40;;;;;;;31.92;4.25;;;7.70;98.90;;;;;;4994103;28;20053;-79
2022/02/26 09:02:08;;;;;;;28.13;4.38;;;7.80;98.60;;;;;;4993001;28;20051;-80
2022/02/26 09:04:34;;;;;;;41.00;5.32;;;7.80;98.80;;;;;;4993849;28;20023;-80
2022/02/26 09:07:00;;;;;;;35.28;5.13;;;7.80;98.30;;;;;;4994032;28;20037;-81
2022/02/26 09:09:25;;;;;;;25.95;4.95;;;8.10;98.30;;;;;;4994369;28;20030;-81
2022/02/26 09:11:51;;;;;;;36.08;5.50;;;8.20;97.80;;;;;;4993961;28;20026;-81
2022/02/26 09:14:17;;;;;;;35.42;4.70;;;8.40;98.00;;;;;;4993880;28;20030;-77
2022/02/26 09:16:43;;;;;;;23.02;3.63;;;8.90;97.50;;;;;;4993714;28;20026;-78
2022/02/26 09:19:08;;;;;;;28.17;4.45;;;9.20;97.10;;;;;;4993809;28;20090;-78
2022/02/26 09:21:34;;;;;;;47.60;6.88;;;9.30;96.60;;;;;;4993514;28;20041;-77
2022/02/26 09:24:00;;;;;;;31.75;4.55;;;9.60;96.50;;;;;;4993949;28;20161;-77
2022/02/26 09:26:25;;;;;;;25.88;3.78;;;9.60;96.00;;;;;;4976433;28;20403;-79
2022/02/26 09:28:51;;;;;;;24.27;3.88;;;9.80;95.90;;;;;;4992916;28;20058;-80
2022/02/26 09:31:17;;;;;;;34.42;5.03;;;9.80;95.60;;;;;;4993541;28;20042;-80
2022/02/26 09:33:43;;;;;;;28.80;5.07;;;10.70;94.80;;;;;;4993525;28;20105;-80
2022/02/26 09:36:09;;;;;;;23.42;4.07;;;11.50;93.90;;;;;;4994046;28;20371;-80
2022/02/26 09:38:37;;;;;;;26.95;4.65;;;11.60;93.00;;;;;;4992279;28;20038;-77
2022/02/26 09:41:07;;;;;;;25.30;4.75;;;11.40;92.60;;;;;;4992306;28;20125;-79
2022/02/26 09:43:33;;;;;;;29.25;4.72;;;11.40;92.50;;;;;;4993255;28;20039;-80
2022/02/26 09:46:00;;;;;;;24.85;4.00;;;11.70;92.70;;;;;;4993694;28;20037;-79
2022/02/26 09:48:27;;;;;;;24.92;4.93;;;12.20;92.40;;;;;;4994094;28;20030;-78
2022/02/26 09:50:53;;;;;;;15.18;3.22;;;13.60;92.10;;;;;;4993586;28;20037;-82
2022/02/26 09:53:20;;;;;;;20.73;3.70;;;14.90;89.00;;;;;;4993352;28;20089;-80
2022/02/26 09:55:46;;;;;;;22.73;3.83;;;15.00;87.50;;;;;;4993077;28;20050;-79
2022/02/26 09:58:15;;;;;;;14.00;3.30;;;15.50;84.90;;;;;;4993138;28;20452;-83
2022/02/26 10:00:41;;;;;;;26.17;3.42;;;15.40;84.10;;;;;;4993483;28;20030;-85
2022/02/26 10:03:23;;;;;;;14.65;3.35;;;15.00;84.40;;;;;;4993089;28;20105;-79
2022/02/26 10:06:14;;;;;;;19.70;3.92;;;14.80;83.90;;;;;;4993124;28;20046;-81
2022/02/26 10:08:52;;;;;;;17.38;3.13;;;14.80;83.60;;;;;;4993236;28;20037;-78
2022/02/26 10:11:32;;;;;;;19.67;4.30;;;15.80;82.90;;;;;;4993047;28;20041;-79
2022/02/26 10:14:04;;;;;;;27.08;4.03;;;15.00;81.20;;;;;;4992684;28;20356;-81
2022/02/26 10:16:51;;;;;;;17.05;3.55;;;16.10;80.40;;;;;;4992029;28;20338;-81
2022/02/26 10:19:23;;;;;;;22.57;3.47;;;16.60;77.70;;;;;;4992660;28;20422;-80
2022/02/26 10:21:49;;;;;;;24.13;4.32;;;17.60;82.00;;;;;;4992744;28;20258;-81
2022/02/26 10:24:16;;;;;;;25.77;3.97;;;17.90;73.00;;;;;;4992744;28;20170;-85
2022/02/26 10:26:54;;;;;;;15.38;3.35;;;18.40;77.20;;;;;;4992411;28;20023;-77
2022/02/26 10:29:23;;;;;;;18.35;3.50;;;18.10;72.00;;;;;;4992482;28;20038;-81
2022/02/26 10:31:51;;;;;;;18.73;3.90;;;19.00;72.20;;;;;;4992399;28;20548;-79
2022/02/26 10:34:44;;;;;;;19.23;3.97;;;19.50;69.70;;;;;;4974943;28;20084;-81
2022/02/26 10:37:16;;;;;;;18.33;3.70;;;20.40;68.80;;;;;;4989273;28;20377;-81
2022/02/26 10:39:51;;;;;;;24.73;3.80;;;21.20;68.00;;;;;;4992221;28;20029;-81
2022/02/26 10:42:31;;;;;;;20.75;3.70;;;21.30;63.00;;;;;;4992681;28;20014;-79
2022/02/26 10:45:08;;;;;;;22.90;3.85;;;21.60;61.50;;;;;;4991230;28;20088;-78
2022/02/26 10:47:36;;;;;;;20.67;3.97;;;21.30;60.10;;;;;;4992425;28;20107;-83
2022/02/26 10:50:20;;;;;;;21.45;3.97;;;20.60;58.90;;;;;;4991944;28;20030;-76
2022/02/26 10:53:00;;;;;;;20.05;4.00;;;21.00;59.80;;;;;;4992116;28;20050;-82
2022/02/26 10:55:47;;;;;;;14.73;3.45;;;21.00;61.10;;;;;;4991920;28;20125;-79
2022/02/26 10:58:17;;;;;;;25.40;4.28;;;20.70;58.40;;;;;;4992008;28;20030;-79
2022/02/26 11:00:43;;;;;;;17.08;3.53;;;20.60;58.40;;;;;;4990817;28;20052;-80
2022/02/26 11:03:12;;;;;;;21.50;4.10;;;20.10;58.10;;;;;;4992140;28;20500;-80
2022/02/26 11:05:38;;;;;;;19.15;3.33;;;19.70;59.40;;;;;;4991864;28;20089;-81
2022/02/26 11:08:05;;;;;;;18.20;3.65;;;18.90;57.60;;;;;;4991800;28;20031;-80
2022/02/26 11:10:31;;;;;;;19.70;3.30;;;19.50;58.30;;;;;;4991985;28;20129;-79
2022/02/26 11:12:58;;;;;;;19.65;3.60;;;19.60;57.70;;;;;;4992103;28;20057;-79
2022/02/26 11:15:26;;;;;;;14.15;3.08;;;20.20;58.10;;;;;;4990300;28;20035;-78
2022/02/26 11:17:53;;;;;;;21.83;2.97;;;18.60;57.30;;;;;;4991821;28;20055;-80
2022/02/26 11:20:21;;;;;;;15.90;3.60;;;18.30;59.20;;;;;;4991736;28;20061;-79
2022/02/26 11:22:47;;;;;;;;;;;19.00;57.90;;;;;;4992172;28;20042;-84
2022/02/26 11:25:13;;;;;;;21.90;4.15;;;19.70;57.00;;;;;;4992034;28;19976;-80
2022/02/26 11:27:39;;;;;;;18.88;3.30;;;20.50;56.40;;;;;;4991819;28;20437;-79
2022/02/26 11:30:08;;;;;;;14.93;3.30;;;20.90;55.90;;;;;;4991908;28;20027;-77
2022/02/26 11:32:39;;;;;;;16.35;3.40;;;20.70;55.80;;;;;;4991426;28;20050;-78
2022/02/26 11:35:26;;;;;;;20.10;3.55;;;20.00;53.90;;;;;;4991067;28;20030;-78
2022/02/26 11:38:03;;;;;;;18.48;2.83;;;20.50;54.90;;;;;;4991363;28;20061;-79
2022/02/26 11:40:30;;;;;;;17.97;4.10;;;20.30;53.30;;;;;;4991406;28;20034;-78
2022/02/26 11:42:57;;;;;;;21.33;3.50;;;20.30;54.50;;;;;;4991210;28;20356;-77
2022/02/26 11:45:29;;;;;;;17.77;4.03;;;20.80;55.50;;;;;;4991778;28;20093;-77
2022/02/26 11:47:58;;;;;;;18.00;3.60;;;21.20;53.90;;;;;;4991138;28;20101;-77
2022/02/26 11:50:41;;;;;;;16.05;3.15;;;21.00;53.70;;;;;;4990275;28;20093;-77
2022/02/26 11:53:10;;;;;;;17.80;3.38;;;20.60;53.40;;;;;;4974091;28;20057;-77
2022/02/26 11:55:49;;;;;;;17.50;2.90;;;20.50;53.10;;;;;;4991154;28;20042;-78
2022/02/26 11:58:28;;;;;;;15.60;3.88;;;19.70;53.60;;;;;;4991120;28;20046;-77
2022/02/26 12:00:59;;;;;;;14.10;3.63;;;19.00;54.60;;;;;;4990218;28;20360;-76
2022/02/26 12:03:52;;;;;;;12.55;2.75;;;18.40;55.70;;;;;;4991642;28;20227;-77
2022/02/26 12:06:20;;;;;;;23.45;3.72;;;17.70;57.00;;;;;;4973819;28;20049;-77
2022/02/26 12:09:07;;;;;;;16.15;3.33;;;17.30;57.50;;;;;;4990986;28;20039;-78
2022/02/26 12:11:35;;;;;;;12.32;3.20;;;17.00;57.00;;;;;;4991042;28;20055;-77
2022/02/26 12:14:05;;;;;;;20.17;2.85;;;16.70;56.80;;;;;;4991314;28;20045;-79
2022/02/26 12:16:38;;;;;;;16.52;4.13;;;15.90;57.70;;;;;;4992081;28;20038;-79
2022/02/26 12:19:27;;;;;;;19.00;3.40;;;15.50;58.80;;;;;;4989935;28;20096;-77
2022/02/26 12:22:04;;;;;;;18.88;3.45;;;15.50;59.60;;;;;;4991030;28;20011;-78
2022/02/26 12:24:32;;;;;;;19.40;3.00;;;15.00;60.80;;;;;;5003384;28;20057;-86
2022/02/26 12:27:05;;;;;;;;;;;15.10;60.70;;;;;;4995914;28;20117;-82
2022/02/26 12:29:43;;;;;;;20.10;3.38;;;15.00;61.40;;;;;;5016142;28;19967;-80
2022/02/26 12:32:18;;;;;;;18.00;3.28;;;14.80;61.80;;;;;;5017232;28;20029;-79
2022/02/26 12:35:03;;;;;;;19.25;3.13;;;14.70;62.90;;;;;;5018070;28;20030;-80
2022/02/26 12:37:34;;;;;;;14.80;2.67;;;14.50;63.70;;;;;;5016507;28;20053;-77
2022/02/26 12:40:09;;;;;;;18.88;4.38;;;14.40;63.10;;;;;;5014350;28;20105;-73
2022/02/26 12:42:45;;;;;;;21.55;3.08;;;14.30;64.70;;;;;;5014056;28;20539;-75
2022/02/26 12:45:13;;;;;;;18.20;4.00;;;14.30;64.10;;;;;;5014920;28;20022;-76
2022/02/26 12:47:40;;;;;;;14.13;3.92;;;14.30;65.20;;;;;;5013813;28;20479;-75
2022/02/26 12:50:08;;;;;;;15.73;3.72;;;13.80;65.30;;;;;;5013762;28;20098;-76
2022/02/26 12:52:38;;;;;;;15.52;2.90;;;14.00;66.00;;;;;;5013713;28;20113;-74
2022/02/26 12:55:09;;;;;;;21.85;3.22;;;13.80;65.60;;;;;;5013663;28;20452;-75
2022/02/26 12:57:44;;;;;;;13.70;2.40;;;13.30;66.90;;;;;;5013754;28;20045;-75
2022/02/26 13:00:13;;;;;;;17.42;2.97;;;13.00;66.60;;;;;;5014229;28;20029;-74